sensor_id;sensor_type;location;lat;lon;timestamp;pressure;altitude;pressure_sealevel;temperature;humidity
61682;BME280;47577;43.610;25.010;2024-03-17T00:01:02;100878.47;;;2.48;100.00
61682;BME280;47577;43.610;25.010;2024-03-17T00:03:28;100886.38;;;2.52;100.00
61682;BME280;47577;43.610;25.010;2024-03-17T00:05:58;100891.56;;;2.43;100.00
61682;BME280;47577;43.610;25.010;2024-03-17T00:08:24;100881.09;;;2.43;100.00
61682;BME280;47577;43.610;25.010;2024-03-17T00:10:53;100885.50;;;2.50;100.00
61682;BME280;47577;43.610;25.010;2024-03-17T00:13:22;100891.69;;;2.60;99.51
61682;BME280;47577;43.610;25.010;2024-03-17T00:15:49;100882.97;;;2.66;99.31
61682;BME280;47577;43.610;25.010;2024-03-17T00:18:15;100888.28;;;2.78;99.74
61682;BME280;47577;43.610;25.010;2024-03-17T00:20:40;100865.47;;;2.68;99.32
61682;BME280;47577;43.610;25.010;2024-03-17T00:23:06;100872.53;;;2.77;97.59
61682;BME280;47577;43.610;25.010;2024-03-17T00:25:33;100882.19;;;2.82;97.51
61682;BME280;47577;43.610;25.010;2024-03-17T00:28:02;100888.22;;;2.63;99.02
61682;BME280;47577;43.610;25.010;2024-03-17T00:30:28;100878.44;;;2.43;99.42
61682;BME280;47577;43.610;25.010;2024-03-17T00:32:53;100880.19;;;2.44;99.92
61682;BME280;47577;43.610;25.010;2024-03-17T00:35:19;100879.38;;;2.50;99.20
61682;BME280;47577;43.610;25.010;2024-03-17T00:37:51;100877.63;;;2.50;98.70
61682;BME280;47577;43.610;25.010;2024-03-17T00:40:20;100885.41;;;2.41;97.78
61682;BME280;47577;43.610;25.010;2024-03-17T00:42:46;100866.97;;;2.29;97.39
61682;BME280;47577;43.610;25.010;2024-03-17T00:45:12;100873.94;;;2.28;97.59
61682;BME280;47577;43.610;25.010;2024-03-17T00:47:38;100873.03;;;2.23;97.38
61682;BME280;47577;43.610;25.010;2024-03-17T00:50:05;100861.50;;;2.01;98.39
61682;BME280;47577;43.610;25.010;2024-03-17T00:52:32;100859.66;;;1.91;99.24
61682;BME280;47577;43.610;25.010;2024-03-17T00:54:58;100866.69;;;1.95;99.60
61682;BME280;47577;43.610;25.010;2024-03-17T00:57:23;100870.06;;;1.83;100.00
61682;BME280;47577;43.610;25.010;2024-03-17T00:59:50;100867.44;;;1.81;100.00
61682;BME280;47577;43.610;25.010;2024-03-17T01:02:16;100861.28;;;1.78;100.00
61682;BME280;47577;43.610;25.010;2024-03-17T01:04:42;100856.91;;;1.75;100.00
61682;BME280;47577;43.610;25.010;2024-03-17T01:07:09;100876.22;;;1.87;100.00
61682;BME280;47577;43.610;25.010;2024-03-17T01:09:34;100860.44;;;1.82;100.00
61682;BME280;47577;43.610;25.010;2024-03-17T01:12:01;100871.91;;;1.93;100.00
61682;BME280;47577;43.610;25.010;2024-03-17T01:14:27;100860.47;;;1.83;100.00
61682;BME280;47577;43.610;25.010;2024-03-17T01:16:53;100852.59;;;1.82;100.00
61682;BME280;47577;43.610;25.010;2024-03-17T01:19:19;100871.75;;;1.76;100.00
61682;BME280;47577;43.610;25.010;2024-03-17T01:21:44;100854.13;;;1.61;100.00
61682;BME280;47577;43.610;25.010;2024-03-17T01:24:10;100866.44;;;1.67;100.00
61682;BME280;47577;43.610;25.010;2024-03-17T01:26:35;100861.03;;;1.52;100.00
61682;BME280;47577;43.610;25.010;2024-03-17T01:29:01;100862.81;;;1.56;100.00
61682;BME280;47577;43.610;25.010;2024-03-17T01:31:27;100856.66;;;1.54;100.00
61682;BME280;47577;43.610;25.010;2024-03-17T01:33:52;100871.59;;;1.61;100.00
61682;BME280;47577;43.610;25.010;2024-03-17T01:36:18;100865.56;;;1.70;100.00
61682;BME280;47577;43.610;25.010;2024-03-17T01:38:44;100867.31;;;1.69;100.00
61682;BME280;47577;43.610;25.010;2024-03-17T01:41:10;100866.47;;;1.73;100.00
61682;BME280;47577;43.610;25.010;2024-03-17T01:43:35;100854.22;;;1.69;100.00
61682;BME280;47577;43.610;25.010;2024-03-17T01:46:01;100854.28;;;1.75;100.00
61682;BME280;47577;43.610;25.010;2024-03-17T01:48:28;100849.91;;;1.76;100.00
61682;BME280;47577;43.610;25.010;2024-03-17T01:50:55;100856.88;;;1.72;100.00
61682;BME280;47577;43.610;25.010;2024-03-17T01:53:22;100860.28;;;1.65;100.00
61682;BME280;47577;43.610;25.010;2024-03-17T01:55:54;100870.72;;;1.59;100.00
61682;BME280;47577;43.610;25.010;2024-03-17T01:58:25;100860.13;;;1.48;100.00
61682;BME280;47577;43.610;25.010;2024-03-17T02:00:51;100882.84;;;1.51;100.00
61682;BME280;47577;43.610;25.010;2024-03-17T02:03:17;100871.56;;;1.58;100.00
61682;BME280;47577;43.610;25.010;2024-03-17T02:05:43;100870.81;;;1.70;100.00
61682;BME280;47577;43.610;25.010;2024-03-17T02:08:10;100857.91;;;1.90;100.00
61682;BME280;47577;43.610;25.010;2024-03-17T02:10:37;100872.84;;;1.98;100.00
61682;BME280;47577;43.610;25.010;2024-03-17T02:13:03;100870.28;;;2.05;99.77
61682;BME280;47577;43.610;25.010;2024-03-17T02:15:32;100870.31;;;2.08;99.12
61682;BME280;47577;43.610;25.010;2024-03-17T02:17:58;100868.56;;;2.10;99.20
61682;BME280;47577;43.610;25.010;2024-03-17T02:20:24;100878.25;;;2.18;98.56
61682;BME280;47577;43.610;25.010;2024-03-17T02:23:10;100869.41;;;2.07;98.87
61682;BME280;47577;43.610;25.010;2024-03-17T02:25:36;100871.94;;;1.96;98.57
61682;BME280;47577;43.610;25.010;2024-03-17T02:28:02;100870.94;;;1.80;98.92
61682;BME280;47577;43.610;25.010;2024-03-17T02:30:28;100877.91;;;1.83;99.38
61682;BME280;47577;43.610;25.010;2024-03-17T02:32:54;100875.41;;;1.94;98.95
61682;BME280;47577;43.610;25.010;2024-03-17T02:35:24;100878.97;;;2.02;98.29
61682;BME280;47577;43.610;25.010;2024-03-17T02:37:50;100878.13;;;2.05;98.24
61682;BME280;47577;43.610;25.010;2024-03-17T02:40:16;100878.81;;;1.83;98.56
61682;BME280;47577;43.610;25.010;2024-03-17T02:42:43;100872.53;;;1.66;99.32
61682;BME280;47577;43.610;25.010;2024-03-17T02:45:10;100871.81;;;1.84;99.17
61682;BME280;47577;43.610;25.010;2024-03-17T02:47:37;100870.94;;;1.80;98.87
61682;BME280;47577;43.610;25.010;2024-03-17T02:50:03;100884.03;;;1.80;97.82
61682;BME280;47577;43.610;25.010;2024-03-17T02:52:30;100889.34;;;1.85;97.21
61682;BME280;47577;43.610;25.010;2024-03-17T02:54:55;100878.75;;;1.76;96.17
61682;BME280;47577;43.610;25.010;2024-03-17T02:57:22;100885.66;;;1.69;96.26
61682;BME280;47577;43.610;25.010;2024-03-17T02:59:50;100880.44;;;1.69;96.74
61682;BME280;47577;43.610;25.010;2024-03-17T03:02:17;100873.38;;;1.63;96.34
61682;BME280;47577;43.610;25.010;2024-03-17T03:04:42;100875.81;;;1.46;96.48
61682;BME280;47577;43.610;25.010;2024-03-17T03:07:08;100874.84;;;1.37;97.54
61682;BME280;47577;43.610;25.010;2024-03-17T03:09:34;100873.06;;;1.34;97.73
61682;BME280;47577;43.610;25.010;2024-03-17T03:12:00;100871.25;;;1.28;98.16
61682;BME280;47577;43.610;25.010;2024-03-17T03:14:27;100883.47;;;1.28;97.88
61682;BME280;47577;43.610;25.010;2024-03-17T03:16:53;100882.34;;;1.07;99.18
61682;BME280;47577;43.610;25.010;2024-03-17T03:19:19;100867.41;;;1.02;99.45
61682;BME280;47577;43.610;25.010;2024-03-17T03:21:45;100871.16;;;1.21;99.13
61682;BME280;47577;43.610;25.010;2024-03-17T03:24:11;100874.50;;;1.07;98.65
61682;BME280;47577;43.610;25.010;2024-03-17T03:26:37;100884.88;;;1.01;99.45
61682;BME280;47577;43.610;25.010;2024-03-17T03:29:04;100870.78;;;0.90;100.00
61682;BME280;47577;43.610;25.010;2024-03-17T03:31:32;100877.78;;;0.91;100.00
61682;BME280;47577;43.610;25.010;2024-03-17T03:33:59;100879.50;;;0.92;100.00
61682;BME280;47577;43.610;25.010;2024-03-17T03:36:27;100875.00;;;0.80;100.00
61682;BME280;47577;43.610;25.010;2024-03-17T03:38:53;100887.09;;;0.72;100.00
61682;BME280;47577;43.610;25.010;2024-03-17T03:41:19;100881.66;;;0.58;100.00
61682;BME280;47577;43.610;25.010;2024-03-17T03:43:45;100881.53;;;0.49;100.00
61682;BME280;47577;43.610;25.010;2024-03-17T03:46:13;100887.78;;;0.57;100.00
61682;BME280;47577;43.610;25.010;2024-03-17T03:48:39;100883.41;;;0.58;100.00
61682;BME280;47577;43.610;25.010;2024-03-17T03:51:08;100881.59;;;0.52;100.00
61682;BME280;47577;43.610;25.010;2024-03-17T03:53:35;100879.19;;;0.67;100.00
61682;BME280;47577;43.610;25.010;2024-03-17T03:56:05;100883.66;;;0.76;100.00
61682;BME280;47577;43.610;25.010;2024-03-17T03:58:36;100878.41;;;0.76;100.00
61682;BME280;47577;43.610;25.010;2024-03-17T04:01:08;100886.53;;;0.95;100.00
61682;BME280;47577;43.610;25.010;2024-03-17T04:03:37;100883.94;;;0.96;100.00
61682;BME280;47577;43.610;25.010;2024-03-17T04:06:04;100884.84;;;0.98;100.00
61682;BME280;47577;43.610;25.010;2024-03-17T04:08:31;100892.69;;;0.98;100.00
61682;BME280;47577;43.610;25.010;2024-03-17T04:10:57;100894.41;;;0.95;100.00
61682;BME280;47577;43.610;25.010;2024-03-17T04:13:23;100900.59;;;1.01;100.00
61682;BME280;47577;43.610;25.010;2024-03-17T04:15:48;100896.28;;;1.05;100.00
61682;BME280;47577;43.610;25.010;2024-03-17T04:18:15;100882.31;;;1.04;100.00
61682;BME280;47577;43.610;25.010;2024-03-17T04:20:42;100900.72;;;1.11;100.00
61682;BME280;47577;43.610;25.010;2024-03-17T04:23:08;100897.31;;;1.18;100.00
61682;BME280;47577;43.610;25.010;2024-03-17T04:25:33;100910.38;;;1.15;100.00
61682;BME280;47577;43.610;25.010;2024-03-17T04:27:59;100902.63;;;1.24;100.00
61682;BME280;47577;43.610;25.010;2024-03-17T04:30:24;100901.78;;;1.25;100.00
61682;BME280;47577;43.610;25.010;2024-03-17T04:32:50;100910.69;;;1.42;100.00
61682;BME280;47577;43.610;25.010;2024-03-17T04:35:17;100901.94;;;1.39;100.00
61682;BME280;47577;43.610;25.010;2024-03-17T04:37:43;100899.31;;;1.39;100.00
61682;BME280;47577;43.610;25.010;2024-03-17T04:40:09;100902.81;;;1.38;100.00
61682;BME280;47577;43.610;25.010;2024-03-17T04:42:35;100913.34;;;1.45;100.00
61682;BME280;47577;43.610;25.010;2024-03-17T04:45:01;100901.13;;;1.44;100.00
61682;BME280;47577;43.610;25.010;2024-03-17T04:47:26;100910.84;;;1.55;100.00
61682;BME280;47577;43.610;25.010;2024-03-17T04:49:52;100904.81;;;1.62;100.00
61682;BME280;47577;43.610;25.010;2024-03-17T04:52:18;100903.13;;;1.67;100.00
61682;BME280;47577;43.610;25.010;2024-03-17T04:54:43;100903.19;;;1.75;100.00
61682;BME280;47577;43.610;25.010;2024-03-17T04:57:09;100912.91;;;1.83;100.00
61682;BME280;47577;43.610;25.010;2024-03-17T04:59:35;100909.34;;;1.77;100.00
61682;BME280;47577;43.610;25.010;2024-03-17T05:02:01;100912.81;;;1.74;100.00
61682;BME280;47577;43.610;25.010;2024-03-17T05:04:28;100919.97;;;1.91;100.00
61682;BME280;47577;43.610;25.010;2024-03-17T05:06:53;100916.53;;;1.96;100.00
61682;BME280;47577;43.610;25.010;2024-03-17T05:09:19;100915.69;;;2.00;100.00
61682;BME280;47577;43.610;25.010;2024-03-17T05:11:46;100915.78;;;2.10;100.00
61682;BME280;47577;43.610;25.010;2024-03-17T05:14:12;100910.56;;;2.13;100.00
61682;BME280;47577;43.610;25.010;2024-03-17T05:16:38;100922.06;;;2.27;100.00
61682;BME280;47577;43.610;25.010;2024-03-17T05:19:04;100923.84;;;2.33;100.00
61682;BME280;47577;43.610;25.010;2024-03-17T05:21:30;100930.91;;;2.40;100.00
61682;BME280;47577;43.610;25.010;2024-03-17T05:23:57;100932.78;;;2.55;100.00
61682;BME280;47577;43.610;25.010;2024-03-17T05:26:26;100924.91;;;2.56;100.00
61682;BME280;47577;43.610;25.010;2024-03-17T05:28:52;100936.38;;;2.68;100.00
61682;BME280;47577;43.610;25.010;2024-03-17T05:31:19;100934.78;;;2.88;100.00
61682;BME280;47577;43.610;25.010;2024-03-17T05:33:47;100934.91;;;3.13;100.00
61682;BME280;47577;43.610;25.010;2024-03-17T05:36:13;100941.13;;;3.37;100.00
61682;BME280;47577;43.610;25.010;2024-03-17T05:38:39;100943.88;;;3.60;100.00
61682;BME280;47577;43.610;25.010;2024-03-17T05:41:06;100936.03;;;3.77;100.00
61682;BME280;47577;43.610;25.010;2024-03-17T05:43:34;100950.13;;;4.03;100.00
61682;BME280;47577;43.610;25.010;2024-03-17T05:46:07;100945.75;;;4.19;99.12
61682;BME280;47577;43.610;25.010;2024-03-17T05:48:38;100947.53;;;4.37;99.92
61682;BME280;47577;43.610;25.010;2024-03-17T05:51:08;100950.16;;;4.50;99.97
61682;BME280;47577;43.610;25.010;2024-03-17T05:53:35;100941.38;;;4.57;99.59
61682;BME280;47577;43.610;25.010;2024-03-17T05:56:02;100950.16;;;4.71;97.69
61682;BME280;47577;43.610;25.010;2024-03-17T05:58:28;100943.09;;;4.84;97.97
61682;BME280;47577;43.610;25.010;2024-03-17T06:00:53;100956.25;;;4.92;96.05
61682;BME280;47577;43.610;25.010;2024-03-17T06:03:19;100962.38;;;5.02;96.40
61682;BME280;47577;43.610;25.010;2024-03-17T06:05:45;100952.75;;;5.01;93.92
61682;BME280;47577;43.610;25.010;2024-03-17T06:08:11;100954.47;;;5.05;92.23
61682;BME280;47577;43.610;25.010;2024-03-17T06:10:42;100947.44;;;5.05;90.91
61682;BME280;47577;43.610;25.010;2024-03-17T06:13:07;100946.56;;;5.02;91.53
61682;BME280;47577;43.610;25.010;2024-03-17T06:15:37;100953.59;;;5.13;92.58
61682;BME280;47577;43.610;25.010;2024-03-17T06:18:04;100957.97;;;5.24;92.03
61682;BME280;47577;43.610;25.010;2024-03-17T06:20:30;100966.69;;;5.46;97.41
61682;BME280;47577;43.610;25.010;2024-03-17T06:22:56;100957.84;;;5.53;97.64
61682;BME280;47577;43.610;25.010;2024-03-17T06:25:22;100964.00;;;5.52;96.19
61682;BME280;47577;43.610;25.010;2024-03-17T06:27:52;100963.97;;;5.57;94.78
61682;BME280;47577;43.610;25.010;2024-03-17T06:30:18;100969.25;;;5.61;95.16
61682;BME280;47577;43.610;25.010;2024-03-17T06:32:45;100977.16;;;5.61;95.10
61682;BME280;47577;43.610;25.010;2024-03-17T06:35:14;100963.97;;;5.63;95.96
61682;BME280;47577;43.610;25.010;2024-03-17T06:37:51;100968.34;;;5.68;96.59
61682;BME280;47577;43.610;25.010;2024-03-17T06:40:18;100968.28;;;5.78;97.74
61682;BME280;47577;43.610;25.010;2024-03-17T06:42:43;100962.97;;;5.85;99.47
61682;BME280;47577;43.610;25.010;2024-03-17T06:45:09;100967.28;;;6.08;100.00
61682;BME280;47577;43.610;25.010;2024-03-17T06:47:38;100961.00;;;6.26;100.00
61682;BME280;47577;43.610;25.010;2024-03-17T06:50:06;100966.88;;;6.59;100.00
61682;BME280;47577;43.610;25.010;2024-03-17T06:52:34;100969.22;;;6.94;100.00
61682;BME280;47577;43.610;25.010;2024-03-17T06:54:59;100975.19;;;7.17;100.00
61682;BME280;47577;43.610;25.010;2024-03-17T06:57:26;100969.59;;;7.41;100.00
61682;BME280;47577;43.610;25.010;2024-03-17T06:59:52;100971.09;;;7.64;100.00
61682;BME280;47577;43.610;25.010;2024-03-17T07:02:18;100966.41;;;7.86;100.00
61682;BME280;47577;43.610;25.010;2024-03-17T07:04:48;100960.72;;;8.14;100.00
61682;BME280;47577;43.610;25.010;2024-03-17T07:07:14;100965.69;;;8.34;98.37
61682;BME280;47577;43.610;25.010;2024-03-17T07:09:40;100968.03;;;8.57;97.32
61682;BME280;47577;43.610;25.010;2024-03-17T07:12:07;100962.38;;;8.77;97.25
61682;BME280;47577;43.610;25.010;2024-03-17T07:14:32;100962.09;;;8.92;96.13
61682;BME280;47577;43.610;25.010;2024-03-17T07:16:58;100961.03;;;9.04;94.90
61682;BME280;47577;43.610;25.010;2024-03-17T07:19:23;100959.78;;;9.24;95.37
61682;BME280;47577;43.610;25.010;2024-03-17T07:21:49;100961.13;;;9.45;94.67
61682;BME280;47577;43.610;25.010;2024-03-17T07:24:14;100975.78;;;9.63;93.14
61682;BME280;47577;43.610;25.010;2024-03-17T07:26:40;100955.22;;;9.73;91.38
61682;BME280;47577;43.610;25.010;2024-03-17T07:29:06;100957.63;;;9.85;91.04
61682;BME280;47577;43.610;25.010;2024-03-17T07:31:31;100965.22;;;10.02;89.46
61682;BME280;47577;43.610;25.010;2024-03-17T07:33:57;100962.25;;;10.16;90.67
61682;BME280;47577;43.610;25.010;2024-03-17T07:36:23;100952.97;;;10.35;89.69
61682;BME280;47577;43.610;25.010;2024-03-17T07:38:48;100955.19;;;10.52;90.75
61682;BME280;47577;43.610;25.010;2024-03-17T07:41:14;100960.25;;;10.63;90.13
61682;BME280;47577;43.610;25.010;2024-03-17T07:43:40;100961.84;;;10.70;88.45
61682;BME280;47577;43.610;25.010;2024-03-17T07:46:10;100965.03;;;10.85;89.02
61682;BME280;47577;43.610;25.010;2024-03-17T07:48:39;100958.34;;;11.03;89.66
61682;BME280;47577;43.610;25.010;2024-03-17T07:51:10;100957.34;;;11.07;85.52
61682;BME280;47577;43.610;25.010;2024-03-17T07:53:37;100958.84;;;11.17;87.99
61682;BME280;47577;43.610;25.010;2024-03-17T07:56:11;100953.06;;;11.34;87.54
61682;BME280;47577;43.610;25.010;2024-03-17T07:58:38;100957.00;;;11.52;88.43
61682;BME280;47577;43.610;25.010;2024-03-17T08:01:11;100945.13;;;11.62;86.16
61682;BME280;47577;43.610;25.010;2024-03-17T08:03:39;100944.91;;;11.70;84.25
61682;BME280;47577;43.610;25.010;2024-03-17T08:06:07;100942.91;;;11.78;83.90
61682;BME280;47577;43.610;25.010;2024-03-17T08:08:34;100947.84;;;11.92;83.46
61682;BME280;47577;43.610;25.010;2024-03-17T08:11:00;100944.84;;;12.03;81.99
61682;BME280;47577;43.610;25.010;2024-03-17T08:13:32;100943.69;;;12.12;82.23
61682;BME280;47577;43.610;25.010;2024-03-17T08:16:04;100940.34;;;12.33;84.62
61682;BME280;47577;43.610;25.010;2024-03-17T08:18:36;100940.84;;;12.44;83.46
61682;BME280;47577;43.610;25.010;2024-03-17T08:21:03;100937.88;;;12.54;81.16
61682;BME280;47577;43.610;25.010;2024-03-17T08:23:29;100934.38;;;12.52;80.40
61682;BME280;47577;43.610;25.010;2024-03-17T08:25:59;100936.91;;;12.56;81.00
61682;BME280;47577;43.610;25.010;2024-03-17T08:28:26;100932.16;;;12.65;80.06
61682;BME280;47577;43.610;25.010;2024-03-17T08:30:57;100938.06;;;12.74;79.41
61682;BME280;47577;43.610;25.010;2024-03-17T08:33:23;100933.06;;;12.65;77.38
61682;BME280;47577;43.610;25.010;2024-03-17T08:36:00;100928.63;;;12.64;77.33
61682;BME280;47577;43.610;25.010;2024-03-17T08:38:26;100932.94;;;12.68;77.93
61682;BME280;47577;43.610;25.010;2024-03-17T08:40:54;100929.44;;;12.66;77.96
61682;BME280;47577;43.610;25.010;2024-03-17T08:43:21;100925.63;;;12.75;79.18
61682;BME280;47577;43.610;25.010;2024-03-17T08:45:56;100923.72;;;12.78;76.94
61682;BME280;47577;43.610;25.010;2024-03-17T08:48:28;100923.31;;;12.89;78.64
61682;BME280;47577;43.610;25.010;2024-03-17T08:50:57;100922.25;;;12.95;75.32
61682;BME280;47577;43.610;25.010;2024-03-17T08:53:23;100911.72;;;13.15;78.62
61682;BME280;47577;43.610;25.010;2024-03-17T08:55:49;100924.28;;;13.12;72.18
61682;BME280;47577;43.610;25.010;2024-03-17T08:58:16;100925.66;;;13.24;76.56
61682;BME280;47577;43.610;25.010;2024-03-17T09:00:42;100908.97;;;13.42;77.77
61682;BME280;47577;43.610;25.010;2024-03-17T09:03:08;100900.91;;;13.44;74.68
61682;BME280;47577;43.610;25.010;2024-03-17T09:05:38;100907.00;;;13.47;73.47
61682;BME280;47577;43.610;25.010;2024-03-17T09:08:05;100915.41;;;13.60;75.28
61682;BME280;47577;43.610;25.010;2024-03-17T09:10:31;100912.06;;;13.79;76.52
61682;BME280;47577;43.610;25.010;2024-03-17T09:12:56;100894.56;;;13.70;71.19
61682;BME280;47577;43.610;25.010;2024-03-17T09:15:22;100906.38;;;13.86;73.72
61682;BME280;47577;43.610;25.010;2024-03-17T09:17:47;100894.47;;;13.95;72.80
61682;BME280;47577;43.610;25.010;2024-03-17T09:20:13;100901.44;;;14.21;73.95
61682;BME280;47577;43.610;25.010;2024-03-17T09:22:43;100892.50;;;14.22;73.51
61682;BME280;47577;43.610;25.010;2024-03-17T09:25:09;100891.91;;;14.36;73.21
61682;BME280;47577;43.610;25.010;2024-03-17T09:27:35;100883.97;;;14.55;72.96
61682;BME280;47577;43.610;25.010;2024-03-17T09:30:07;100890.31;;;14.75;73.21
61682;BME280;47577;43.610;25.010;2024-03-17T09:32:35;100889.91;;;14.84;69.19
61682;BME280;47577;43.610;25.010;2024-03-17T09:35:01;100883.41;;;14.90;66.75
61682;BME280;47577;43.610;25.010;2024-03-17T09:37:28;100884.81;;;14.78;68.57
61682;BME280;47577;43.610;25.010;2024-03-17T09:39:56;100885.81;;;14.75;70.43
61682;BME280;47577;43.610;25.010;2024-03-17T09:42:23;100875.88;;;14.79;69.92
61682;BME280;47577;43.610;25.010;2024-03-17T09:44:50;100869.63;;;14.99;71.30
61682;BME280;47577;43.610;25.010;2024-03-17T09:47:19;100875.50;;;15.07;68.95
61682;BME280;47577;43.610;25.010;2024-03-17T09:49:50;100873.06;;;15.22;69.27
61682;BME280;47577;43.610;25.010;2024-03-17T09:52:25;100869.47;;;15.42;67.12
61682;BME280;47577;43.610;25.010;2024-03-17T09:55:00;100878.16;;;15.66;66.52
61682;BME280;47577;43.610;25.010;2024-03-17T09:57:27;100859.19;;;15.70;65.55
61682;BME280;47577;43.610;25.010;2024-03-17T09:59:54;100862.81;;;15.88;65.53
61682;BME280;47577;43.610;25.010;2024-03-17T10:02:20;100862.75;;;15.90;61.44
61682;BME280;47577;43.610;25.010;2024-03-17T10:04:47;100859.19;;;15.89;56.81
61682;BME280;47577;43.610;25.010;2024-03-17T10:07:13;100849.41;;;15.88;57.00
61682;BME280;47577;43.610;25.010;2024-03-17T10:09:40;100865.78;;;15.82;59.18
61682;BME280;47577;43.610;25.010;2024-03-17T10:12:23;100860.81;;;15.16;60.93
61682;BME280;47577;43.610;25.010;2024-03-17T10:15:01;100861.84;;;14.93;62.51
61682;BME280;47577;43.610;25.010;2024-03-17T10:17:33;100867.06;;;14.96;63.11
61682;BME280;47577;43.610;25.010;2024-03-17T10:20:17;100859.38;;;14.88;65.09
61682;BME280;47577;43.610;25.010;2024-03-17T10:23:05;100859.88;;;14.77;59.45
61682;BME280;47577;43.610;25.010;2024-03-17T10:25:38;100853.41;;;15.02;66.25
61682;BME280;47577;43.610;25.010;2024-03-17T10:28:15;100853.53;;;15.20;65.18
61682;BME280;47577;43.610;25.010;2024-03-17T10:30:41;100853.00;;;15.30;64.21
61682;BME280;47577;43.610;25.010;2024-03-17T10:33:22;100854.09;;;15.26;61.46
61682;BME280;47577;43.610;25.010;2024-03-17T10:36:01;100846.28;;;15.22;58.68
61682;BME280;47577;43.610;25.010;2024-03-17T10:38:28;100851.63;;;15.22;57.89
61682;BME280;47577;43.610;25.010;2024-03-17T10:40:53;100847.22;;;15.21;56.16
61682;BME280;47577;43.610;25.010;2024-03-17T10:43:19;100846.25;;;15.03;58.36
61682;BME280;47577;43.610;25.010;2024-03-17T10:45:51;100839.06;;;14.63;57.99
61682;BME280;47577;43.610;25.010;2024-03-17T10:48:19;100842.53;;;14.86;57.44
61682;BME280;47577;43.610;25.010;2024-03-17T10:50:46;100839.97;;;14.62;58.09
61682;BME280;47577;43.610;25.010;2024-03-17T10:53:18;100846.09;;;14.66;55.17
61682;BME280;47577;43.610;25.010;2024-03-17T10:55:51;100840.31;;;14.55;55.95
61682;BME280;47577;43.610;25.010;2024-03-17T11:00:57;100825.03;;;14.36;55.63
61682;BME280;47577;43.610;25.010;2024-03-17T11:03:24;100838.75;;;14.49;53.99
61682;BME280;47577;43.610;25.010;2024-03-17T11:05:51;100825.28;;;14.73;56.22
61682;BME280;47577;43.610;25.010;2024-03-17T11:08:18;100820.50;;;15.00;56.13
61682;BME280;47577;43.610;25.010;2024-03-17T11:10:52;100815.66;;;15.08;52.69
61682;BME280;47577;43.610;25.010;2024-03-17T11:13:27;100817.31;;;15.30;51.37
61682;BME280;47577;43.610;25.010;2024-03-17T11:15:54;100816.00;;;15.01;52.17
61682;BME280;47577;43.610;25.010;2024-03-17T11:21:06;100795.53;;;15.38;50.48
61682;BME280;47577;43.610;25.010;2024-03-17T11:23:42;100789.53;;;15.32;51.44
61682;BME280;47577;43.610;25.010;2024-03-17T11:26:08;100792.47;;;15.64;51.73
61682;BME280;47577;43.610;25.010;2024-03-17T11:28:52;100800.44;;;15.85;48.03
61682;BME280;47577;43.610;25.010;2024-03-17T11:33:58;100792.97;;;16.09;46.98
61682;BME280;47577;43.610;25.010;2024-03-17T11:39:09;100784.13;;;16.24;44.87
61682;BME280;47577;43.610;25.010;2024-03-17T11:41:51;100794.00;;;15.89;47.27
61682;BME280;47577;43.610;25.010;2024-03-17T11:46:54;100782.75;;;15.81;45.10
61682;BME280;47577;43.610;25.010;2024-03-17T11:49:23;100781.25;;;15.56;46.13
61682;BME280;47577;43.610;25.010;2024-03-17T11:51:51;100784.53;;;16.17;45.14
61682;BME280;47577;43.610;25.010;2024-03-17T11:54:20;100782.41;;;16.41;44.78
61682;BME280;47577;43.610;25.010;2024-03-17T11:56:48;100776.00;;;16.26;43.60
61682;BME280;47577;43.610;25.010;2024-03-17T11:59:15;100762.97;;;16.36;47.12
61682;BME280;47577;43.610;25.010;2024-03-17T12:01:45;100758.72;;;16.82;44.52
61682;BME280;47577;43.610;25.010;2024-03-17T12:04:13;100766.84;;;16.81;43.29
61682;BME280;47577;43.610;25.010;2024-03-17T12:06:39;100749.06;;;16.62;45.05
61682;BME280;47577;43.610;25.010;2024-03-17T12:09:26;100751.25;;;16.72;44.06
61682;BME280;47577;43.610;25.010;2024-03-17T12:12:46;100764.41;;;16.43;43.45
61682;BME280;47577;43.610;25.010;2024-03-17T12:15:00;100751.22;;;16.03;44.04
61682;BME280;47577;43.610;25.010;2024-03-17T12:17:26;100758.34;;;16.22;43.03
61682;BME280;47577;43.610;25.010;2024-03-17T12:19:51;100736.34;;;16.15;42.86
61682;BME280;47577;43.610;25.010;2024-03-17T12:22:21;100745.88;;;16.21;45.26
61682;BME280;47577;43.610;25.010;2024-03-17T12:24:52;100733.72;;;16.14;44.50
61682;BME280;47577;43.610;25.010;2024-03-17T12:27:22;100742.53;;;15.81;44.16
61682;BME280;47577;43.610;25.010;2024-03-17T12:29:50;100753.00;;;15.68;46.18
61682;BME280;47577;43.610;25.010;2024-03-17T12:32:17;100738.69;;;15.86;44.52
61682;BME280;47577;43.610;25.010;2024-03-17T12:34:45;100740.09;;;15.94;45.62
61682;BME280;47577;43.610;25.010;2024-03-17T12:37:19;100744.75;;;15.90;46.86
61682;BME280;47577;43.610;25.010;2024-03-17T12:39:45;100744.22;;;15.64;46.11
61682;BME280;47577;43.610;25.010;2024-03-17T12:42:24;100738.13;;;15.80;45.37
61682;BME280;47577;43.610;25.010;2024-03-17T12:47:18;100736.16;;;15.83;48.94
61682;BME280;47577;43.610;25.010;2024-03-17T12:50:00;100742.31;;;16.03;48.40
61682;BME280;47577;43.610;25.010;2024-03-17T12:52:27;100738.53;;;15.89;49.10
61682;BME280;47577;43.610;25.010;2024-03-17T12:57:42;100736.94;;;15.85;48.63
61682;BME280;47577;43.610;25.010;2024-03-17T13:00:26;100716.31;;;15.87;49.49
61682;BME280;47577;43.610;25.010;2024-03-17T13:05:29;100728.38;;;16.14;45.33
61682;BME280;47577;43.610;25.010;2024-03-17T13:07:55;100730.75;;;16.02;47.44